NOAA/GLERL Met Station at Michigan City, IN

Previous 5 days (top of hour only)
See slso Previous 3 Hours (2 minute increments)
Jump down to Data
Switch to [English][Metric]
Zoom: Click and drag, Pan: shift-click and drag, Unzoom: double-click, Unzoom All





Zoom: Click and drag, Pan: shift-click and drag, Unzoom: double-click, Unzoom All

Note: Speed = mean wind during 2-minute period at top of hour,
Gust = max wind during 2-minute period at top of hour,
Peak = max wind during entire hour.
• See also 5-day windrose plot

NOAA/GLERL Met Station at Michigan City, IN

Previous 5 days (top of hour only)
See slso Previous 3 Hours (2 minute increments)
Jump up to Graphs
Switch to [English][Metric]
                  Wind  Wind  Wind   Air   Dew   Rel     Sta   PAR
                   Spd   Gst   Dir  Temp    Pt   Hum    Pres uE/m2/
YYYY-MM-DD   CDT   kts   kts   deg     F     F     %   in Hg   sec
2016-05-03 01:00   4.3   4.7   237  44.2  40.6  86.9   29.37     0
2016-05-03 00:00   4.3   4.7   261  44.6  40.8  86.3   29.38     0
2016-05-02 23:00   1.9   2.3   253  44.8  41.4  87.9   29.38     0
2016-05-02 22:00   3.9   4.3   322  45.7  42.0  86.7   29.39     0
2016-05-02 21:00   4.3   4.7     3  46.2  41.3  82.6   29.39     0
2016-05-02 20:00   5.1   5.4    21  46.0  40.4  80.6   29.39     0
2016-05-02 19:00   6.6   7.0    14  45.7  39.4  78.5   29.39    40
2016-05-02 18:00   8.7   9.5    14  45.7  38.4  75.4   29.39   128
2016-05-02 17:00   8.4   9.3    19  45.1  39.0  78.7   29.40   307
2016-05-02 16:00   8.4   9.1    10  44.2  38.5  79.9   29.41   826
2016-05-02 15:00   7.4   8.0   360  44.4  38.5  79.5   29.43   501
2016-05-02 14:00  12.1  13.0   356  44.8  38.0  76.8   29.43   974
2016-05-02 13:00  13.6  14.4   349  44.6  39.1  80.9   29.42  2296
2016-05-02 12:00  14.0  14.8   354  44.2  39.6  83.4   29.42  2210
2016-05-02 11:00  14.0  15.4   344  44.6  41.7  89.5   29.41  1505
2016-05-02 10:00  13.0  13.4     9  45.3  42.1  88.4   29.41  1406
2016-05-02 09:00  11.9  12.8    17  45.1  42.1  89.0   29.41   831
2016-05-02 08:00  17.1  18.1    21  45.0  41.8  88.6   29.41   523
2016-05-02 07:00  20.0  21.8    19  45.0  41.8  88.6   29.40   180
2016-05-02 06:00  21.4  23.7    13  44.8  42.9  92.9   29.38    14
2016-05-02 05:00  20.6  22.2   360  43.2  42.3  96.9   29.38     0
2016-05-02 04:00  17.9  19.2    12  45.1  43.5  93.9   29.36     0
2016-05-02 03:00  17.1  18.9     2  44.6  43.8  97.0   29.36     0
2016-05-02 02:00  15.6  16.9   352  45.5  44.9  97.7   29.36     0
2016-05-02 01:00  15.2  16.9    20  47.3  46.1  95.4   29.33     0
2016-05-02 00:00  16.7  18.7    24  47.5  46.7  97.2   29.34     0
2016-05-01 23:00  18.1  20.0    29  46.8  46.7  99.8   29.31     0
2016-05-01 22:00  15.4  16.5    27  48.2  47.9  99.0   29.33     0
2016-05-01 21:00  13.8  14.6     8  49.1  48.9  99.2   29.30     0
2016-05-01 20:00  16.1  17.3    34  46.8  46.3  98.4   29.29     0
2016-05-01 19:00  17.1  17.9     8  45.9  45.2  97.6   29.31    43
2016-05-01 18:00  12.1  12.6    10  46.0  45.4  97.7   29.33   108
2016-05-01 17:00   9.9  10.5    22  45.3  44.8  98.0   29.34   213
2016-05-01 16:00   4.7   5.2    13  46.2  45.7  97.9   29.36   263
2016-05-01 15:00   9.1   9.9   352  45.5  44.9  97.8   29.36   452
2016-05-01 14:00   9.1  10.5     1  44.8  44.4  98.6   29.36   582
2016-05-01 13:00  10.9  12.1     5  45.5  45.3  99.4   29.36  1210
2016-05-01 12:00  13.8  14.8   351  44.2  44.2  99.7   29.36   785
2016-05-01 11:00  10.5  11.1     6  45.3  45.3 100.0   29.36  1053
2016-05-01 10:00  14.2  15.7     2  44.4  44.4 100.0   29.36   591
2016-05-01 09:00  13.6  14.8     5  44.8  44.8  99.9   29.35   415
2016-05-01 08:00  14.2  15.7   357  44.8  44.7  99.8   29.33   203
2016-05-01 07:00  11.1  11.7     3  45.1  45.1  99.7   29.31   126
2016-05-01 06:00   8.7   9.3     6  46.0  45.9  99.3   29.29    10
2016-05-01 05:00   8.7   9.3     7  47.3  47.1  99.1   29.28     0
2016-05-01 04:00   8.4   9.1    24  47.8  47.2  97.6   29.27     0
2016-05-01 03:00   5.8   6.8    46  47.8  47.1  97.2   29.27     0
2016-05-01 02:00   7.4   8.2    41  47.8  47.3  98.1   29.27     0
2016-05-01 01:00   8.2  10.1    44  47.8  47.3  98.0   29.28     0
2016-05-01 00:00   9.5  10.5    50  47.8  47.8  99.8   29.28     0
2016-04-30 23:00  12.2  13.2    26  47.3  47.2  99.7   29.29     0
2016-04-30 22:00  13.2  14.6    27  47.3  47.1  99.1   29.29     0
2016-04-30 21:00  12.4  13.4    31  47.8  47.1  97.3   29.28     0
2016-04-30 20:00  13.4  15.9    44  48.2  46.6  94.0   29.29     0
2016-04-30 19:00  11.3  14.0    46  47.7  46.6  96.0   29.28    13
2016-04-30 18:00  13.6  15.2    50  48.0  46.8  95.6   29.28    70
2016-04-30 17:00  12.2  13.0    45  47.8  46.8  96.0   29.28    91
2016-04-30 16:00  12.4  16.5    56  47.7  46.0  94.0   29.30   156
2016-04-30 15:00  11.7  13.2    51  47.7  45.0  90.2   29.31   265
2016-04-30 14:00  16.3  19.1    59  46.6  43.9  90.2   29.33   565
2016-04-30 13:00  13.2  15.4    64  45.9  42.2  87.0   29.36   325
2016-04-30 12:00  12.2  16.5    65  44.8  39.7  82.3   29.39   359
2016-04-30 11:00  10.5  12.4    66  45.0  38.0  76.4   29.41   358
2016-04-30 10:00  11.7  14.2    76  47.7  34.2  59.3   29.43   197
2016-04-30 09:00  12.6  17.5    87  47.8  33.2  56.6   29.43   301
2016-04-30 08:00   8.6  11.1    73  47.1  36.9  67.2   29.44   352
2016-04-30 07:00   8.0  10.3    85  46.6  38.1  71.9   29.46   130
2016-04-30 06:00   8.2  12.6    74  46.6  40.1  78.0   29.44    14
2016-04-30 05:00   8.7  10.3    58  46.4  41.4  82.5   29.43     0
2016-04-30 04:00   8.7   9.7    48  46.4  41.6  83.3   29.46     0
2016-04-30 03:00   8.4   9.7    61  46.2  42.4  86.2   29.44     0
2016-04-30 02:00  10.3  10.9    40  46.4  42.7  86.9   29.44     0
2016-04-30 01:00   6.8   8.2    60  45.0  42.4  90.6   29.47     0
2016-04-30 00:00   8.2   8.7    46  45.5  42.6  89.6   29.47     0
2016-04-29 23:00   6.6   7.2    12  45.0  43.8  95.5   29.50     0
2016-04-29 22:00   8.9  10.3    17  43.7  42.2  94.5   29.51     0
2016-04-29 21:00   8.7   9.7    11  42.3  40.3  92.6   29.51     0
2016-04-29 20:00   8.0   8.7   359  41.9  40.0  92.9   29.52     0
2016-04-29 19:00   8.9  10.1     4  41.5  40.0  94.3   29.50    34
2016-04-29 18:00   9.5  10.5   346  41.7  40.4  95.0   29.50   173
2016-04-29 17:00  13.6  14.2   358  41.5  40.0  94.2   29.48   660
2016-04-29 16:00   8.4   9.9   299  41.9  40.5  94.6   29.51   436
2016-04-29 15:00   8.0   8.9   314  41.9  41.0  96.6   29.48   392
2016-04-29 14:00   8.0   9.1   313  41.7  41.0  97.1   29.48   579
2016-04-29 13:00   9.3  10.1   317  41.7  41.1  97.6   29.47   485
2016-04-29 12:00  15.4  16.1   324  41.5  41.0  97.8   29.46   686
2016-04-29 11:00  14.8  15.9   312  41.5  40.9  97.6   29.46   650
2016-04-29 10:00  12.1  13.0   274  41.5  40.9  97.4   29.48   465
2016-04-29 09:00  13.2  14.2   286  41.2  41.1  99.5   29.43   508
2016-04-29 08:00  12.8  14.0   273  41.4  41.2  99.4   29.44   412
2016-04-29 07:00  10.5  11.9   250  41.2  41.0  99.4   29.43    87
2016-04-29 06:00   7.4   8.0   250  42.4  42.3  99.5   29.41     4
2016-04-29 05:00   4.5   5.1   255  42.1  41.9  99.4   29.39     0
2016-04-29 04:00   6.8   7.6   245  42.8  42.6  99.4   29.39     0
2016-04-29 03:00  12.4  13.4   229  43.2  43.0  99.3   29.38     0
2016-04-29 02:00   7.0   7.8   198  45.0  44.8  99.2   29.38     0
2016-04-29 01:00   5.8   6.6   222  44.4  44.2  99.3   29.36     0
2016-04-29 00:00   8.7   9.5   215  44.6  44.2  98.3   29.37     0
2016-04-28 23:00   7.0   7.2   210  45.3  44.4  96.4   29.37     0
2016-04-28 22:00   3.1   4.3   198  47.8  46.7  95.9   29.36     0
2016-04-28 21:00   2.5   2.9   359  48.0  47.3  97.2   29.34     0
2016-04-28 20:00   4.1   4.5    32  47.5  46.8  97.4   29.32     0
2016-04-28 19:00   7.0   7.4    26  46.4  45.4  96.2   29.31    42